DLH42F EDDF-KLAS
Flight info
| Callsign | DLH42F |
|---|---|
| Flight time | N/A |
| Altitude | 32000 |
| Route | OBOKA6N/25C OBOKA Z28 DIBIR DCT BUDIP DCT AMGOD DCT TOPPA DCT GIGUL DCT UPNAL DCT ATSIX/M082F340 DCT 62N020W 63N030W 63N040W 62N050W/M082F360 DCT PIDSO DCT MIBNO/N0475F360 DCT TUNNI DCT KELMU DCT 57N090W/N0479F380 52N100W DCT KU12U DCT KU87S DCT KU72Q DCT MLF DCT STEWW CHOWW4 |
| Aircraft | A343/H-SDE2E3FGHIJ4J5M1RWXY/LB1D1 |
Departure
| Time | 2026-04-17 21:37 |
|---|---|
| Airport | Frankfurt Main Airport (EDDF) |
Arrival
| Time | N/A |
|---|---|
| Airport | Harry Reid International Airport (KLAS) |
| Time | Latitude | Longitude | Altitude | Speed | Heading |
|---|---|---|---|---|---|
| 2026-04-17 21:06 | 50.04730 | 8.56271 | 374 ft | 0 kts | 339° |
| 2026-04-17 21:22 | 50.04728 | 8.56273 | 374 ft | 3 kts | 340° |
| 2026-04-17 21:22 | 50.04703 | 8.56285 | 368 ft | 4 kts | 347° |
| 2026-04-17 21:23 | 50.04676 | 8.56292 | 369 ft | 4 kts | 353° |
| 2026-04-17 21:23 | 50.04650 | 8.56299 | 368 ft | 4 kts | 339° |
| 2026-04-17 21:23 | 50.04635 | 8.56310 | 372 ft | 3 kts | 254° |
| 2026-04-17 21:23 | 50.04633 | 8.56301 | 370 ft | 4 kts | 252° |
| 2026-04-17 21:24 | 50.04626 | 8.56261 | 372 ft | 4 kts | 253° |
| 2026-04-17 21:24 | 50.04618 | 8.56221 | 370 ft | 4 kts | 252° |
| 2026-04-17 21:24 | 50.04609 | 8.56181 | 372 ft | 4 kts | 250° |
| 2026-04-17 21:24 | 50.04599 | 8.56142 | 372 ft | 4 kts | 248° |
| 2026-04-17 21:25 | 50.04594 | 8.56122 | 371 ft | 0 kts | 247° |
| 2026-04-17 21:29 | 50.04593 | 8.56117 | 370 ft | 2 kts | 247° |
| 2026-04-17 21:29 | 50.04577 | 8.56060 | 372 ft | 10 kts | 246° |
| 2026-04-17 21:29 | 50.04518 | 8.55953 | 372 ft | 16 kts | 202° |
| 2026-04-17 21:30 | 50.04417 | 8.55914 | 370 ft | 14 kts | 188° |
| 2026-04-17 21:30 | 50.04326 | 8.55941 | 371 ft | 13 kts | 160° |
| 2026-04-17 21:30 | 50.04245 | 8.55944 | 372 ft | 11 kts | 202° |
| 2026-04-17 21:30 | 50.04175 | 8.55931 | 366 ft | 10 kts | 167° |
| 2026-04-17 21:31 | 50.04110 | 8.55966 | 371 ft | 12 kts | 152° |
| 2026-04-17 21:31 | 50.04082 | 8.56078 | 371 ft | 11 kts | 79° |
| 2026-04-17 21:31 | 50.04109 | 8.56201 | 371 ft | 14 kts | 70° |
| 2026-04-17 21:31 | 50.04151 | 8.56377 | 366 ft | 20 kts | 70° |
| 2026-04-17 21:32 | 50.04204 | 8.56601 | 369 ft | 24 kts | 69° |
| 2026-04-17 21:32 | 50.04261 | 8.56837 | 369 ft | 22 kts | 70° |
| 2026-04-17 21:32 | 50.04313 | 8.57054 | 372 ft | 21 kts | 69° |
| 2026-04-17 21:32 | 50.04362 | 8.57258 | 372 ft | 20 kts | 69° |
| 2026-04-17 21:33 | 50.04409 | 8.57459 | 370 ft | 19 kts | 70° |
| 2026-04-17 21:33 | 50.04453 | 8.57645 | 373 ft | 18 kts | 70° |
| 2026-04-17 21:33 | 50.04494 | 8.57816 | 372 ft | 16 kts | 70° |
| 2026-04-17 21:33 | 50.04531 | 8.57970 | 373 ft | 13 kts | 70° |
| 2026-04-17 21:34 | 50.04562 | 8.58101 | 369 ft | 15 kts | 69° |
| 2026-04-17 21:34 | 50.04602 | 8.58268 | 374 ft | 17 kts | 69° |
| 2026-04-17 21:34 | 50.04629 | 8.58572 | 367 ft | 12 kts | 139° |
| 2026-04-17 21:35 | 50.04554 | 8.58610 | 373 ft | 12 kts | 166° |
| 2026-04-17 21:35 | 50.04503 | 8.58601 | 371 ft | 12 kts | 205° |
| 2026-04-17 21:35 | 50.04460 | 8.58480 | 370 ft | 17 kts | 250° |
| 2026-04-17 21:35 | 50.04387 | 8.58172 | 374 ft | 52 kts | 249° |
| 2026-04-17 21:36 | 50.04200 | 8.57391 | 370 ft | 100 kts | 249° |
| 2026-04-17 21:36 | 50.03910 | 8.56169 | 363 ft | 140 kts | 249° |
| 2026-04-17 21:36 | 50.03532 | 8.54581 | 384 ft | 170 kts | 251° |
| 2026-04-17 21:36 | 50.03123 | 8.52847 | 686 ft | 179 kts | 248° |
| 2026-04-17 21:37 | 50.02334 | 8.51167 | 834 ft | 199 kts | 220° |
| 2026-04-17 21:37 | 50.01214 | 8.49935 | 1436 ft | 196 kts | 207° |
| 2026-04-17 21:37 | 49.99866 | 8.49363 | 1761 ft | 209 kts | 187° |
| 2026-04-17 21:37 | 49.98346 | 8.49155 | 1880 ft | 232 kts | 184° |
| 2026-04-17 21:38 | 49.96665 | 8.48958 | 2113 ft | 252 kts | 186° |
| 2026-04-17 21:38 | 49.94976 | 8.48046 | 2426 ft | 266 kts | 217° |
| 2026-04-17 21:38 | 49.93578 | 8.46152 | 3034 ft | 269 kts | 224° |
| 2026-04-17 21:38 | 49.92236 | 8.44092 | 3683 ft | 272 kts | 226° |
| 2026-04-17 21:39 | 49.91164 | 8.41666 | 4307 ft | 276 kts | 248° |
| 2026-04-17 21:39 | 49.90833 | 8.38742 | 4983 ft | 277 kts | 269° |
| 2026-04-17 21:39 | 49.90894 | 8.35749 | 5643 ft | 279 kts | 272° |
| 2026-04-17 21:39 | 49.90993 | 8.32724 | 6292 ft | 281 kts | 271° |
| 2026-04-17 21:40 | 49.91084 | 8.29687 | 6935 ft | 283 kts | 271° |
| 2026-04-17 21:40 | 49.91169 | 8.26664 | 7496 ft | 286 kts | 271° |
| 2026-04-17 21:40 | 49.91358 | 8.23541 | 8056 ft | 290 kts | 282° |
| 2026-04-17 21:40 | 49.92152 | 8.20642 | 8632 ft | 295 kts | 299° |
| 2026-04-17 21:41 | 49.93229 | 8.17975 | 9242 ft | 296 kts | 301° |
| 2026-04-17 21:41 | 49.94505 | 8.15461 | 9836 ft | 299 kts | 314° |
| 2026-04-17 21:41 | 49.96076 | 8.13266 | 10356 ft | 302 kts | 318° |
| 2026-04-17 21:41 | 49.97690 | 8.11142 | 10591 ft | 315 kts | 318° |
| 2026-04-17 21:42 | 49.99386 | 8.08897 | 10799 ft | 326 kts | 317° |
| 2026-04-17 21:42 | 50.01142 | 8.06562 | 10980 ft | 339 kts | 318° |
| 2026-04-17 21:42 | 50.02965 | 8.04141 | 11201 ft | 350 kts | 318° |
| 2026-04-17 21:42 | 50.04847 | 8.01635 | 11386 ft | 362 kts | 317° |
| 2026-04-17 21:43 | 50.06774 | 7.99054 | 11734 ft | 369 kts | 317° |
| 2026-04-17 21:43 | 50.08731 | 7.96432 | 12232 ft | 372 kts | 317° |
| 2026-04-17 21:43 | 50.10698 | 7.93791 | 12724 ft | 375 kts | 317° |
| 2026-04-17 21:43 | 50.12676 | 7.91128 | 13236 ft | 377 kts | 317° |
| 2026-04-17 21:44 | 50.14663 | 7.88449 | 13761 ft | 380 kts | 317° |
| 2026-04-17 21:44 | 50.16667 | 7.85745 | 14250 ft | 382 kts | 317° |
| 2026-04-17 21:44 | 50.18686 | 7.83019 | 14701 ft | 384 kts | 317° |
| 2026-04-17 21:44 | 50.20717 | 7.80280 | 15121 ft | 388 kts | 317° |
| 2026-04-17 21:45 | 50.22769 | 7.77510 | 15542 ft | 392 kts | 317° |
| 2026-04-17 21:45 | 50.24874 | 7.74785 | 16035 ft | 394 kts | 322° |
| 2026-04-17 21:45 | 50.27249 | 7.72613 | 16512 ft | 398 kts | 332° |
| 2026-04-17 21:45 | 50.29785 | 7.70822 | 16951 ft | 401 kts | 334° |
| 2026-04-17 21:46 | 50.32355 | 7.69078 | 17385 ft | 404 kts | 334° |
| 2026-04-17 21:46 | 50.34941 | 7.67320 | 17827 ft | 406 kts | 334° |
| 2026-04-17 21:46 | 50.37538 | 7.65551 | 18294 ft | 408 kts | 334° |
| 2026-04-17 21:46 | 50.40144 | 7.63768 | 18703 ft | 411 kts | 334° |
| 2026-04-17 21:47 | 50.42775 | 7.61960 | 19107 ft | 412 kts | 334° |
| 2026-04-17 21:47 | 50.45409 | 7.60147 | 19486 ft | 415 kts | 334° |
| 2026-04-17 21:47 | 50.48062 | 7.58318 | 19844 ft | 417 kts | 334° |
| 2026-04-17 21:47 | 50.50726 | 7.56479 | 20204 ft | 419 kts | 334° |
| 2026-04-17 21:48 | 50.53403 | 7.54630 | 20599 ft | 422 kts | 334° |
| 2026-04-17 21:48 | 50.56043 | 7.52618 | 20955 ft | 422 kts | 328° |
| 2026-04-17 21:48 | 50.58549 | 7.50197 | 21324 ft | 423 kts | 325° |
| 2026-04-17 21:48 | 50.60994 | 7.47699 | 21669 ft | 426 kts | 324° |
| 2026-04-17 21:49 | 50.63484 | 7.45142 | 22036 ft | 429 kts | 324° |
| 2026-04-17 21:49 | 50.65987 | 7.42568 | 22429 ft | 430 kts | 324° |
| 2026-04-17 21:49 | 50.68498 | 7.39985 | 22763 ft | 432 kts | 324° |
| 2026-04-17 21:49 | 50.71022 | 7.37389 | 23073 ft | 435 kts | 324° |
| 2026-04-17 21:50 | 50.73481 | 7.34598 | 23384 ft | 435 kts | 317° |
| 2026-04-17 21:50 | 50.75601 | 7.31211 | 23721 ft | 434 kts | 307° |
| 2026-04-17 21:50 | 50.77467 | 7.27466 | 23994 ft | 435 kts | 304° |
| 2026-04-17 21:50 | 50.79241 | 7.23583 | 24258 ft | 436 kts | 303° |
| 2026-04-17 21:51 | 50.80970 | 7.19640 | 24522 ft | 437 kts | 302° |
| 2026-04-17 21:51 | 50.82694 | 7.15658 | 24792 ft | 439 kts | 302° |
| 2026-04-17 21:51 | 50.84424 | 7.11675 | 25064 ft | 440 kts | 302° |
| 2026-04-17 21:51 | 50.86168 | 7.07680 | 25320 ft | 442 kts | 303° |
| 2026-04-17 21:52 | 50.87928 | 7.03677 | 25565 ft | 444 kts | 302° |
| 2026-04-17 21:52 | 50.89701 | 6.99665 | 25766 ft | 446 kts | 302° |
| 2026-04-17 21:52 | 50.91486 | 6.95638 | 26015 ft | 447 kts | 302° |
| 2026-04-17 21:52 | 50.93276 | 6.91596 | 26265 ft | 448 kts | 302° |
| 2026-04-17 21:53 | 50.95065 | 6.87546 | 26482 ft | 450 kts | 302° |
| 2026-04-17 21:53 | 50.96863 | 6.83469 | 26708 ft | 451 kts | 302° |
| 2026-04-17 21:53 | 50.98663 | 6.79377 | 26946 ft | 453 kts | 302° |
| 2026-04-17 21:53 | 51.00464 | 6.75274 | 27175 ft | 454 kts | 302° |
| 2026-04-17 21:54 | 51.02273 | 6.71146 | 27402 ft | 456 kts | 302° |
| 2026-04-17 21:54 | 51.04087 | 6.67006 | 27599 ft | 457 kts | 302° |
| 2026-04-17 21:54 | 51.05903 | 6.62856 | 27838 ft | 458 kts | 302° |
| 2026-04-17 21:54 | 51.07725 | 6.58683 | 28010 ft | 461 kts | 301° |
| 2026-04-17 21:55 | 51.09556 | 6.54488 | 28218 ft | 462 kts | 302° |
| 2026-04-17 21:55 | 51.11389 | 6.50283 | 28414 ft | 464 kts | 301° |
| 2026-04-17 21:55 | 51.13223 | 6.46059 | 28617 ft | 465 kts | 301° |
| 2026-04-17 21:55 | 51.15060 | 6.41818 | 28819 ft | 466 kts | 301° |
| 2026-04-17 21:56 | 51.16876 | 6.37616 | 29075 ft | 466 kts | 301° |
| 2026-04-17 21:56 | 51.18706 | 6.33382 | 29412 ft | 464 kts | 301° |
| 2026-04-17 21:56 | 51.20534 | 6.29147 | 29699 ft | 463 kts | 301° |
| 2026-04-17 21:56 | 51.22354 | 6.24918 | 29943 ft | 462 kts | 301° |
| 2026-04-17 21:57 | 51.24172 | 6.20689 | 30193 ft | 462 kts | 301° |
| 2026-04-17 21:57 | 51.25987 | 6.16461 | 30421 ft | 462 kts | 300° |
| 2026-04-17 21:57 | 51.27802 | 6.12225 | 30585 ft | 462 kts | 300° |
| 2026-04-17 21:57 | 51.29603 | 6.07974 | 30788 ft | 461 kts | 300° |
| 2026-04-17 21:58 | 51.31363 | 6.03700 | 30966 ft | 460 kts | 299° |
| 2026-04-17 21:58 | 51.33108 | 5.99401 | 31153 ft | 460 kts | 299° |
| 2026-04-17 21:58 | 51.34844 | 5.95103 | 31339 ft | 460 kts | 299° |
| 2026-04-17 21:58 | 51.36623 | 5.90848 | 31517 ft | 461 kts | 303° |
| 2026-04-17 21:59 | 51.38698 | 5.86904 | 31699 ft | 465 kts | 310° |
| 2026-04-17 21:59 | 51.41081 | 5.83369 | 31889 ft | 468 kts | 315° |
| 2026-04-17 21:59 | 51.43555 | 5.79983 | 32096 ft | 468 kts | 316° |
| 2026-04-17 21:59 | 51.46068 | 5.76656 | 32202 ft | 468 kts | 316° |
| 2026-04-17 22:00 | 51.48587 | 5.73371 | 32210 ft | 463 kts | 316° |
| 2026-04-17 22:00 | 51.53566 | 5.66889 | 32214 ft | 460 kts | 316° |
| 2026-04-17 22:01 | 51.58517 | 5.60381 | 32198 ft | 460 kts | 316° |
| 2026-04-17 22:01 | 51.63458 | 5.53841 | 32209 ft | 459 kts | 316° |
| 2026-04-17 22:02 | 51.68391 | 5.47286 | 32213 ft | 460 kts | 316° |
| 2026-04-17 22:02 | 51.73319 | 5.40715 | 32199 ft | 459 kts | 316° |
| 2026-04-17 22:03 | 51.78241 | 5.34134 | 32206 ft | 460 kts | 316° |
| 2026-04-17 22:03 | 51.83159 | 5.27539 | 32194 ft | 459 kts | 316° |
| 2026-04-17 22:04 | 51.88063 | 5.20949 | 32197 ft | 459 kts | 316° |
| 2026-04-17 22:04 | 51.92969 | 5.14336 | 32197 ft | 459 kts | 316° |
| 2026-04-17 22:05 | 51.97870 | 5.07713 | 32204 ft | 458 kts | 315° |
| 2026-04-17 22:05 | 52.02732 | 5.01121 | 32203 ft | 458 kts | 315° |
| 2026-04-17 22:06 | 52.07621 | 4.94470 | 32206 ft | 458 kts | 315° |
| 2026-04-17 22:06 | 52.12538 | 4.87760 | 32209 ft | 458 kts | 315° |
| 2026-04-17 22:07 | 52.17419 | 4.81082 | 32210 ft | 458 kts | 315° |
| 2026-04-17 22:07 | 52.22297 | 4.74389 | 32211 ft | 458 kts | 315° |
| 2026-04-17 22:08 | 52.27177 | 4.67672 | 32200 ft | 459 kts | 315° |
| 2026-04-17 22:08 | 52.32048 | 4.60949 | 32200 ft | 458 kts | 314° |
| 2026-04-17 22:09 | 52.36914 | 4.54211 | 32200 ft | 458 kts | 314° |
| 2026-04-17 22:09 | 52.41776 | 4.47458 | 32197 ft | 459 kts | 314° |
| 2026-04-17 22:10 | 52.46639 | 4.40691 | 32198 ft | 458 kts | 314° |
| 2026-04-17 22:10 | 52.51464 | 4.33950 | 32196 ft | 459 kts | 314° |
| 2026-04-17 22:11 | 52.56313 | 4.27147 | 32194 ft | 459 kts | 314° |
| 2026-04-17 22:11 | 52.61162 | 4.20333 | 32195 ft | 459 kts | 314° |
| 2026-04-17 22:12 | 52.66007 | 4.13500 | 32192 ft | 459 kts | 314° |
| 2026-04-17 22:12 | 52.70855 | 4.06646 | 32197 ft | 459 kts | 314° |
| 2026-04-17 22:13 | 52.75693 | 3.99785 | 32194 ft | 459 kts | 313° |
| 2026-04-17 22:13 | 52.80525 | 3.92901 | 32187 ft | 459 kts | 313° |
| 2026-04-17 22:14 | 52.85355 | 3.86011 | 32185 ft | 459 kts | 313° |
| 2026-04-17 22:14 | 52.90184 | 3.79100 | 32177 ft | 459 kts | 313° |
| 2026-04-17 22:15 | 52.95121 | 3.72382 | 32202 ft | 464 kts | 320° |
| 2026-04-17 22:15 | 53.01047 | 3.67770 | 32178 ft | 481 kts | 339° |
| 2026-04-17 22:16 | 53.07650 | 3.65464 | 32171 ft | 487 kts | 344° |
| 2026-04-17 22:16 | 53.14344 | 3.63582 | 32172 ft | 488 kts | 345° |
| 2026-04-17 22:17 | 53.21039 | 3.61727 | 32181 ft | 488 kts | 344° |
| 2026-04-17 22:17 | 53.27735 | 3.59813 | 32170 ft | 488 kts | 344° |
| 2026-04-17 22:18 | 53.34433 | 3.57862 | 32176 ft | 490 kts | 343° |
| 2026-04-17 22:18 | 53.41166 | 3.55887 | 32161 ft | 492 kts | 343° |
| 2026-04-17 22:19 | 53.47885 | 3.53807 | 32172 ft | 490 kts | 342° |
| 2026-04-17 22:19 | 53.54587 | 3.51638 | 32148 ft | 491 kts | 343° |
| 2026-04-17 22:20 | 53.61298 | 3.49477 | 32165 ft | 491 kts | 343° |
| 2026-04-17 22:20 | 53.68006 | 3.47324 | 32164 ft | 491 kts | 343° |
| 2026-04-17 22:21 | 53.74723 | 3.45167 | 32156 ft | 492 kts | 343° |
| 2026-04-17 22:21 | 53.81461 | 3.43001 | 32152 ft | 493 kts | 343° |
| 2026-04-17 22:22 | 53.88196 | 3.40828 | 32153 ft | 493 kts | 343° |
| 2026-04-17 22:22 | 53.94886 | 3.38662 | 32171 ft | 493 kts | 342° |
| 2026-04-17 22:23 | 54.00530 | 3.36830 | 32148 ft | 494 kts | 342° |
| 2026-04-17 22:23 | 54.08383 | 3.34271 | 32141 ft | 495 kts | 342° |
| 2026-04-17 22:24 | 54.14042 | 3.32418 | 32142 ft | 495 kts | 342° |
| 2026-04-17 22:24 | 54.20798 | 3.30201 | 32160 ft | 495 kts | 342° |
| 2026-04-17 22:25 | 54.27572 | 3.27969 | 32137 ft | 496 kts | 342° |
| 2026-04-17 22:25 | 54.33325 | 3.26069 | 32138 ft | 497 kts | 342° |
| 2026-04-17 22:26 | 54.40111 | 3.23819 | 32137 ft | 496 kts | 342° |
| 2026-04-17 22:26 | 54.46852 | 3.21583 | 32147 ft | 497 kts | 342° |
| 2026-04-17 22:27 | 54.53665 | 3.19310 | 32131 ft | 501 kts | 342° |
| 2026-04-17 22:27 | 54.60424 | 3.16591 | 32128 ft | 492 kts | 332° |
| 2026-04-17 22:28 | 54.66553 | 3.11716 | 32117 ft | 483 kts | 324° |
| 2026-04-17 22:28 | 54.72510 | 3.06343 | 32138 ft | 483 kts | 323° |
| 2026-04-17 22:29 | 54.78435 | 3.00865 | 32109 ft | 483 kts | 323° |
| 2026-04-17 22:29 | 54.84365 | 2.95388 | 32106 ft | 483 kts | 323° |
| 2026-04-17 22:30 | 54.90303 | 2.89917 | 32106 ft | 483 kts | 323° |
| 2026-04-17 22:30 | 54.96245 | 2.84434 | 32103 ft | 483 kts | 323° |
| 2026-04-17 22:31 | 55.02183 | 2.78936 | 32099 ft | 484 kts | 323° |
| 2026-04-17 22:31 | 55.08122 | 2.73410 | 32147 ft | 484 kts | 323° |
| 2026-04-17 22:32 | 55.14066 | 2.67865 | 32091 ft | 485 kts | 323° |
| 2026-04-17 22:32 | 55.20016 | 2.62296 | 32089 ft | 485 kts | 323° |
| 2026-04-17 22:33 | 55.25970 | 2.56707 | 32089 ft | 485 kts | 322° |
| 2026-04-17 22:33 | 55.31926 | 2.51090 | 32084 ft | 487 kts | 322° |
| 2026-04-17 22:34 | 55.37889 | 2.45448 | 32080 ft | 487 kts | 322° |
| 2026-04-17 22:34 | 55.40735 | 2.42344 | 32074 ft | 476 kts | 314° |
| 2026-04-17 22:34 | 55.43225 | 2.38634 | 32075 ft | 463 kts | 304° |
| 2026-04-17 22:35 | 55.47471 | 2.30263 | 32071 ft | 457 kts | 300° |
| 2026-04-17 22:35 | 55.51519 | 2.21640 | 32138 ft | 456 kts | 299° |
| 2026-04-17 22:36 | 55.55531 | 2.12955 | 32061 ft | 457 kts | 299° |
| 2026-04-17 22:36 | 55.59561 | 2.04256 | 32065 ft | 458 kts | 299° |
| 2026-04-17 22:37 | 55.63600 | 1.95551 | 32062 ft | 458 kts | 299° |
| 2026-04-17 22:37 | 55.67638 | 1.86829 | 32055 ft | 458 kts | 299° |
| 2026-04-17 22:38 | 55.71667 | 1.78091 | 32053 ft | 457 kts | 299° |
| 2026-04-17 22:38 | 55.75687 | 1.69349 | 32052 ft | 457 kts | 299° |
| 2026-04-17 22:39 | 55.79670 | 1.60639 | 32057 ft | 457 kts | 299° |
| 2026-04-17 22:39 | 55.85683 | 1.47437 | 32041 ft | 458 kts | 299° |
| 2026-04-17 22:40 | 55.89687 | 1.38610 | 32042 ft | 458 kts | 299° |
| 2026-04-17 22:40 | 55.93686 | 1.29767 | 32037 ft | 458 kts | 299° |
| 2026-04-17 22:41 | 55.97676 | 1.20905 | 32033 ft | 458 kts | 299° |
| 2026-04-17 22:41 | 56.01657 | 1.12029 | 32060 ft | 458 kts | 299° |
| 2026-04-17 22:42 | 56.05635 | 1.03125 | 32020 ft | 459 kts | 299° |
| 2026-04-17 22:42 | 56.09621 | 0.94174 | 32018 ft | 459 kts | 299° |
| 2026-04-17 22:43 | 56.13599 | 0.85216 | 32008 ft | 459 kts | 299° |
| 2026-04-17 22:43 | 56.17566 | 0.76243 | 32028 ft | 459 kts | 299° |
| 2026-04-17 22:44 | 56.21525 | 0.67252 | 32003 ft | 459 kts | 299° |
| 2026-04-17 22:44 | 56.25475 | 0.58248 | 32002 ft | 459 kts | 299° |
| 2026-04-17 22:45 | 56.29427 | 0.49209 | 32009 ft | 460 kts | 299° |
| 2026-04-17 22:45 | 56.33375 | 0.40141 | 32000 ft | 460 kts | 300° |
| 2026-04-17 22:46 | 56.37328 | 0.31029 | 31998 ft | 462 kts | 300° |
| 2026-04-17 22:46 | 56.41279 | 0.21891 | 31996 ft | 462 kts | 300° |
| 2026-04-17 22:47 | 56.45225 | 0.12732 | 31990 ft | 462 kts | 300° |
| 2026-04-17 22:47 | 56.49161 | 0.03553 | 31990 ft | 462 kts | 300° |
| 2026-04-17 22:48 | 56.53093 | -0.05646 | 31978 ft | 462 kts | 300° |
| 2026-04-17 22:48 | 56.57021 | -0.14874 | 31977 ft | 462 kts | 300° |
| 2026-04-17 22:49 | 56.60919 | -0.24067 | 31983 ft | 464 kts | 300° |
| 2026-04-17 22:49 | 56.64846 | -0.33360 | 31965 ft | 464 kts | 300° |
| 2026-04-17 22:50 | 56.68763 | -0.42661 | 31966 ft | 464 kts | 300° |
| 2026-04-17 22:50 | 56.72675 | -0.51994 | 31973 ft | 464 kts | 300° |
| 2026-04-17 22:51 | 56.76576 | -0.61344 | 31951 ft | 463 kts | 300° |
| 2026-04-17 22:51 | 56.80473 | -0.70711 | 31959 ft | 463 kts | 300° |
| 2026-04-17 22:52 | 56.84364 | -0.80098 | 31962 ft | 463 kts | 300° |
| 2026-04-17 22:52 | 56.88250 | -0.89507 | 31950 ft | 464 kts | 300° |
| 2026-04-17 22:53 | 56.92138 | -0.98962 | 31938 ft | 465 kts | 300° |
| 2026-04-17 22:53 | 56.96016 | -1.08432 | 31934 ft | 465 kts | 300° |
| 2026-04-17 22:54 | 56.99887 | -1.17915 | 31977 ft | 464 kts | 300° |
| 2026-04-17 22:54 | 57.03754 | -1.27432 | 31933 ft | 465 kts | 300° |
| 2026-04-17 22:55 | 57.07610 | -1.36963 | 31921 ft | 465 kts | 300° |
| 2026-04-17 22:55 | 57.11436 | -1.46453 | 31921 ft | 465 kts | 300° |
| 2026-04-17 22:56 | 57.15297 | -1.56079 | 31906 ft | 469 kts | 300° |
| 2026-04-17 22:56 | 57.19168 | -1.65757 | 31920 ft | 469 kts | 300° |
| 2026-04-17 22:57 | 57.23033 | -1.75452 | 31893 ft | 469 kts | 300° |
| 2026-04-17 22:57 | 57.26892 | -1.85176 | 31888 ft | 469 kts | 300° |
| 2026-04-17 22:58 | 57.30738 | -1.94915 | 31882 ft | 469 kts | 300° |